createdAt,value
2019-01-20T00:01:24.274Z,38.70
2019-01-20T00:03:51.168Z,38.80
2019-01-20T00:06:18.285Z,38.50
2019-01-20T00:08:45.322Z,38.20
2019-01-20T00:11:16.628Z,38.20
2019-01-20T00:13:41.300Z,38.30
2019-01-20T00:16:08.424Z,38.50
2019-01-20T00:18:36.116Z,38.50
2019-01-20T00:21:03.899Z,38.40
2019-01-20T00:23:30.967Z,38.40
2019-01-20T00:25:58.045Z,38.30
2019-01-20T00:28:25.988Z,38.30
2019-01-20T00:30:53.177Z,38.30
2019-01-20T00:33:20.210Z,38.40
2019-01-20T00:35:46.940Z,38.50
2019-01-20T00:38:13.919Z,38.50
2019-01-20T00:40:41.064Z,39.10
2019-01-20T00:43:08.021Z,38.40
2019-01-20T00:45:35.306Z,38.20
2019-01-20T00:48:02.421Z,38.20
2019-01-20T00:50:29.432Z,38.20
2019-01-20T00:52:57.367Z,39.10
2019-01-20T00:55:25.152Z,38.20
2019-01-20T00:57:52.911Z,37.90
2019-01-20T01:00:20.063Z,37.80
2019-01-20T01:02:46.721Z,37.70
2019-01-20T01:05:14.549Z,37.70
2019-01-20T01:07:41.714Z,37.70
2019-01-20T01:10:08.825Z,37.80
2019-01-20T01:12:36.799Z,37.70
2019-01-20T01:15:03.970Z,37.70
2019-01-20T01:17:31.129Z,37.80
2019-01-20T01:19:58.513Z,37.80
2019-01-20T01:22:26.242Z,37.90
2019-01-20T01:24:52.930Z,38.00
2019-01-20T01:27:19.835Z,38.00
2019-01-20T01:29:47.795Z,38.10
2019-01-20T01:32:15.579Z,38.00
2019-01-20T01:34:42.688Z,38.20
2019-01-20T01:37:09.936Z,38.00
2019-01-20T01:39:36.941Z,38.70
2019-01-20T01:42:04.618Z,37.90
2019-01-20T01:44:31.801Z,37.80
2019-01-20T01:46:59.590Z,37.80
2019-01-20T01:49:26.747Z,37.60
2019-01-20T01:51:54.028Z,37.60
2019-01-20T01:54:21.090Z,37.30
2019-01-20T01:56:48.151Z,37.10
2019-01-20T01:59:15.301Z,37.10
2019-01-20T02:01:43.123Z,37.10
2019-01-20T02:04:10.817Z,37.40
2019-01-20T02:06:38.504Z,37.40
2019-01-20T02:09:05.683Z,37.60
2019-01-20T02:11:32.762Z,37.70
2019-01-20T02:13:59.835Z,37.60
2019-01-20T02:16:27.727Z,37.70
2019-01-20T02:18:54.841Z,37.70
2019-01-20T02:21:21.814Z,37.80
2019-01-20T02:23:48.942Z,37.50
2019-01-20T02:26:16.751Z,37.70
2019-01-20T02:28:43.476Z,37.70
2019-01-20T02:31:11.245Z,37.70
2019-01-20T02:33:38.364Z,37.60
2019-01-20T02:36:05.541Z,37.60
2019-01-20T02:38:32.715Z,37.40
2019-01-20T02:41:00.328Z,37.40
2019-01-20T02:43:28.137Z,37.40
2019-01-20T02:45:55.349Z,37.40
2019-01-20T02:48:23.170Z,37.40
2019-01-20T02:50:50.904Z,37.10
2019-01-20T02:53:17.950Z,36.90
2019-01-20T02:55:44.698Z,37.00
2019-01-20T02:58:13.601Z,37.00
2019-01-20T03:00:41.462Z,36.70
2019-01-20T03:03:08.573Z,36.80
2019-01-20T03:05:35.725Z,36.80
2019-01-20T03:08:03.549Z,36.90
2019-01-20T03:10:30.628Z,36.80
2019-01-20T03:12:57.313Z,36.60
2019-01-20T03:15:24.553Z,36.40
2019-01-20T03:17:51.737Z,36.30
2019-01-20T03:20:19.343Z,36.40
2019-01-20T03:22:46.576Z,36.50
2019-01-20T03:25:15.432Z,36.50
2019-01-20T03:27:42.694Z,36.40
2019-01-20T03:30:10.323Z,36.50
2019-01-20T03:32:38.206Z,36.70
2019-01-20T03:35:05.472Z,36.80
2019-01-20T03:37:33.223Z,36.80
2019-01-20T03:40:00.843Z,37.00
2019-01-20T03:42:27.590Z,36.90
2019-01-20T03:44:54.691Z,36.80
2019-01-20T03:47:21.784Z,37.10
2019-01-20T03:49:49.903Z,37.10
2019-01-20T03:52:17.659Z,37.20
2019-01-20T03:54:44.823Z,37.20
2019-01-20T03:57:11.914Z,37.40
2019-01-20T03:59:39.725Z,37.20
2019-01-20T04:02:07.474Z,37.20
2019-01-20T04:04:34.603Z,37.10
2019-01-20T04:07:01.703Z,36.80
2019-01-20T04:09:29.580Z,36.50
2019-01-20T04:11:56.666Z,36.10
2019-01-20T04:14:23.366Z,36.20
2019-01-20T04:16:50.736Z,36.10
2019-01-20T04:19:18.572Z,36.20
2019-01-20T04:21:45.549Z,36.20
2019-01-20T04:24:12.736Z,36.30
2019-01-20T04:26:39.395Z,36.40
2019-01-20T04:29:06.549Z,36.40
2019-01-20T04:31:33.668Z,36.60
2019-01-20T04:34:00.810Z,36.90
2019-01-20T04:36:28.455Z,36.80
2019-01-20T04:38:55.632Z,36.70
2019-01-20T04:41:22.774Z,36.90
2019-01-20T04:43:50.580Z,36.90
2019-01-20T04:46:17.738Z,36.70
2019-01-20T04:48:44.922Z,36.70
2019-01-20T04:51:12.631Z,36.60
2019-01-20T04:53:39.856Z,36.70
2019-01-20T04:56:06.925Z,36.70
2019-01-20T04:58:34.564Z,36.70
2019-01-20T05:01:01.747Z,36.80
2019-01-20T05:03:29.528Z,36.40
2019-01-20T05:05:57.295Z,36.50
2019-01-20T05:08:25.143Z,36.60
2019-01-20T05:10:52.927Z,36.50
2019-01-20T05:13:20.054Z,36.60
2019-01-20T05:15:47.143Z,36.50
2019-01-20T05:18:14.885Z,36.40
2019-01-20T05:20:41.573Z,36.40
2019-01-20T05:23:09.431Z,36.00
2019-01-20T05:25:36.578Z,36.80
2019-01-20T05:28:03.672Z,35.90
2019-01-20T05:30:32.479Z,35.80
2019-01-20T05:33:00.234Z,36.20
2019-01-20T05:35:27.538Z,36.40
2019-01-20T05:37:55.274Z,36.60
2019-01-20T05:40:23.028Z,36.60
2019-01-20T05:42:50.283Z,36.50
2019-01-20T05:45:17.313Z,36.70
2019-01-20T05:47:45.107Z,36.70
2019-01-20T05:50:12.859Z,36.70
2019-01-20T05:52:40.089Z,36.80
2019-01-20T05:55:07.211Z,36.80
2019-01-20T05:57:34.929Z,36.90
2019-01-20T06:00:02.157Z,37.00
2019-01-20T06:02:29.306Z,37.00
2019-01-20T06:04:55.961Z,37.00
2019-01-20T06:07:23.840Z,37.00
2019-01-20T06:09:52.613Z,37.00
2019-01-20T06:12:20.403Z,37.00
2019-01-20T06:14:48.259Z,37.00
2019-01-20T06:17:17.449Z,37.00
2019-01-20T06:19:45.313Z,37.10
2019-01-20T06:22:12.454Z,37.10
2019-01-20T06:24:40.232Z,37.10
2019-01-20T06:27:08.123Z,37.10
2019-01-20T06:29:35.889Z,37.00
2019-01-20T06:32:03.733Z,36.80
2019-01-20T06:34:30.420Z,36.80
2019-01-20T06:36:57.475Z,36.90
2019-01-20T06:39:24.198Z,37.10
2019-01-20T06:41:51.241Z,37.10
2019-01-20T06:44:18.417Z,37.00
2019-01-20T06:46:45.446Z,37.20
2019-01-20T06:49:12.139Z,36.90
2019-01-20T06:51:38.898Z,36.60
2019-01-20T06:54:05.577Z,36.50
2019-01-20T06:56:32.310Z,36.60
2019-01-20T06:58:59.119Z,36.60
2019-01-20T07:01:25.739Z,36.50
2019-01-20T07:03:52.478Z,36.30
2019-01-20T07:06:19.600Z,36.20
2019-01-20T07:08:46.319Z,35.90
2019-01-20T07:11:13.377Z,35.70
2019-01-20T07:13:40.531Z,35.70
2019-01-20T07:16:09.491Z,35.70
2019-01-20T07:18:36.134Z,35.40
2019-01-20T07:21:03.313Z,35.70
2019-01-20T07:23:30.489Z,35.70
2019-01-20T07:25:57.271Z,35.70
2019-01-20T07:28:23.984Z,35.60
2019-01-20T07:30:51.607Z,35.60
2019-01-20T07:33:18.735Z,35.70
2019-01-20T07:35:45.424Z,35.40
2019-01-20T07:38:12.118Z,35.20
2019-01-20T07:40:39.561Z,35.00
2019-01-20T07:43:16.816Z,35.00
2019-01-20T07:45:39.197Z,35.10
2019-01-20T07:48:06.398Z,35.20
2019-01-20T07:50:33.110Z,35.40
2019-01-20T07:53:00.736Z,35.50
2019-01-20T07:55:27.879Z,35.50
2019-01-20T07:57:54.563Z,36.50
2019-01-20T08:00:21.882Z,35.80
2019-01-20T08:02:50.070Z,35.80
2019-01-20T08:05:17.242Z,36.10
2019-01-20T08:07:45.055Z,36.10
2019-01-20T08:10:11.783Z,36.10
2019-01-20T08:12:38.708Z,36.10
2019-01-20T08:15:05.915Z,36.00
2019-01-20T08:17:32.568Z,36.00
2019-01-20T08:19:59.370Z,35.80
2019-01-20T08:22:26.339Z,35.70
2019-01-20T08:24:53.434Z,35.50
2019-01-20T08:27:20.204Z,35.50
2019-01-20T08:29:46.921Z,35.40
2019-01-20T08:32:14.108Z,35.40
2019-01-20T08:34:40.798Z,35.30
2019-01-20T08:37:08.045Z,35.10
2019-01-20T08:39:35.225Z,35.00
2019-01-20T08:42:01.877Z,35.00
2019-01-20T08:44:28.608Z,34.80
2019-01-20T08:46:57.776Z,34.80
2019-01-20T08:49:24.924Z,35.30
2019-01-20T08:51:52.821Z,35.30
2019-01-20T08:54:19.575Z,35.10
2019-01-20T08:56:48.027Z,35.20
2019-01-20T08:59:14.683Z,35.30
2019-01-20T09:01:41.783Z,35.30
2019-01-20T09:04:08.959Z,35.20
2019-01-20T09:06:35.713Z,35.50
2019-01-20T09:09:02.439Z,35.20
2019-01-20T09:11:30.685Z,35.70
2019-01-20T09:13:58.231Z,35.70
2019-01-20T09:16:24.987Z,35.90
2019-01-20T09:18:51.670Z,36.90
2019-01-20T09:21:19.800Z,36.40
2019-01-20T09:23:48.312Z,36.30
2019-01-20T09:26:15.572Z,36.10
2019-01-20T09:28:42.262Z,36.20
2019-01-20T09:31:08.957Z,36.10
2019-01-20T09:33:36.609Z,35.90
2019-01-20T09:36:03.747Z,35.90
2019-01-20T09:38:30.789Z,35.80
2019-01-20T09:40:57.946Z,35.90
2019-01-20T09:43:24.991Z,35.90
2019-01-20T09:45:52.047Z,35.60
2019-01-20T09:48:19.209Z,35.50
2019-01-20T09:50:45.891Z,35.60
2019-01-20T09:53:13.009Z,35.70
2019-01-20T09:55:39.691Z,35.80
2019-01-20T09:58:06.871Z,36.50
2019-01-20T10:00:33.943Z,37.10
2019-01-20T10:03:00.675Z,37.20
2019-01-20T10:05:27.396Z,37.00
2019-01-20T10:07:54.064Z,36.70
2019-01-20T10:10:20.800Z,36.60
2019-01-20T10:12:47.753Z,36.20
2019-01-20T10:15:14.414Z,36.00
2019-01-20T10:17:41.491Z,36.90
2019-01-20T10:20:08.713Z,37.70
2019-01-20T10:22:35.822Z,37.80
2019-01-20T10:25:02.520Z,37.90
2019-01-20T10:27:29.258Z,37.60
2019-01-20T10:29:56.341Z,38.10
2019-01-20T10:32:23.374Z,37.70
2019-01-20T10:34:51.117Z,37.70
2019-01-20T10:37:20.959Z,37.20
2019-01-20T10:39:48.072Z,37.20
2019-01-20T10:42:15.171Z,37.60
2019-01-20T10:44:42.974Z,37.30
2019-01-20T10:47:10.188Z,38.00
2019-01-20T10:49:37.353Z,37.70
2019-01-20T10:52:04.376Z,37.90
2019-01-20T10:54:32.106Z,37.60
2019-01-20T10:56:59.220Z,37.20
2019-01-20T10:59:26.167Z,38.30
2019-01-20T11:01:53.703Z,37.40
2019-01-20T11:04:21.589Z,37.10
2019-01-20T11:06:48.726Z,36.70
2019-01-20T11:09:15.863Z,36.80
2019-01-20T11:11:42.892Z,36.80
2019-01-20T11:14:10.555Z,37.20
2019-01-20T11:16:37.597Z,37.10
2019-01-20T11:19:04.600Z,36.90
2019-01-20T11:21:31.602Z,37.20
2019-01-20T11:23:58.643Z,36.40
2019-01-20T11:26:25.313Z,36.30
2019-01-20T11:28:52.857Z,35.60
2019-01-20T11:31:19.965Z,35.80
2019-01-20T11:33:47.251Z,35.60
2019-01-20T11:36:14.424Z,36.00
2019-01-20T11:38:41.831Z,36.50
2019-01-20T11:41:09.599Z,36.60
2019-01-20T11:43:36.401Z,37.00
2019-01-20T11:46:03.506Z,36.90
2019-01-20T11:48:31.320Z,35.90
2019-01-20T11:50:58.099Z,35.40
2019-01-20T11:53:25.293Z,35.50
2019-01-20T11:55:53.407Z,35.20
2019-01-20T11:58:20.466Z,35.90
2019-01-20T12:00:47.247Z,33.70
2019-01-20T12:03:14.274Z,33.70
2019-01-20T12:05:41.039Z,33.50
2019-01-20T12:08:08.875Z,33.00
2019-01-20T12:10:35.578Z,32.70
2019-01-20T12:13:02.356Z,33.10
2019-01-20T12:15:29.437Z,32.80
2019-01-20T12:17:57.306Z,32.90
2019-01-20T12:20:24.465Z,32.80
2019-01-20T12:22:51.558Z,32.90
2019-01-20T12:25:18.210Z,33.40
2019-01-20T12:27:44.983Z,32.50
2019-01-20T12:30:12.007Z,31.80
2019-01-20T12:32:38.780Z,32.00
2019-01-20T12:35:05.443Z,33.20
2019-01-20T12:37:32.582Z,33.80
2019-01-20T12:39:59.711Z,32.80
2019-01-20T12:42:26.369Z,32.00
2019-01-20T12:44:53.535Z,32.10
2019-01-20T12:47:20.257Z,31.20
2019-01-20T12:49:46.951Z,30.10
2019-01-20T12:52:14.018Z,30.10
2019-01-20T12:54:41.176Z,29.80
2019-01-20T12:57:08.219Z,29.60
2019-01-20T12:59:34.955Z,29.00
2019-01-20T13:02:01.692Z,28.90
2019-01-20T13:04:28.786Z,28.60
2019-01-20T13:06:55.917Z,28.10
2019-01-20T13:09:23.697Z,27.80
2019-01-20T13:11:50.817Z,27.90
2019-01-20T13:14:18.047Z,26.70
2019-01-20T13:16:45.178Z,26.10
2019-01-20T13:19:13.300Z,26.70
2019-01-20T13:21:39.956Z,26.30
2019-01-20T13:24:07.827Z,26.30
2019-01-20T13:26:35.037Z,26.00
2019-01-20T13:29:02.097Z,26.00
2019-01-20T13:31:28.837Z,26.20
2019-01-20T13:33:55.993Z,26.30
2019-01-20T13:36:22.659Z,26.00
2019-01-20T13:38:49.778Z,25.80
2019-01-20T13:41:16.595Z,25.40
2019-01-20T13:43:43.808Z,25.30
2019-01-20T13:46:10.802Z,25.30
2019-01-20T13:48:38.279Z,25.80
2019-01-20T13:51:05.322Z,26.30
2019-01-20T13:53:32.508Z,26.10
2019-01-20T13:56:01.346Z,27.10
2019-01-20T13:58:28.521Z,27.50
2019-01-20T14:00:55.670Z,27.90
2019-01-20T14:03:22.822Z,28.20
2019-01-20T14:05:49.469Z,28.60
2019-01-20T14:08:16.173Z,28.80
2019-01-20T14:10:42.983Z,29.00
2019-01-20T14:13:09.689Z,29.50
2019-01-20T14:15:36.712Z,29.30
2019-01-20T14:18:03.896Z,29.10
2019-01-20T14:20:31.030Z,29.50
2019-01-20T14:22:58.097Z,29.70
2019-01-20T14:25:25.333Z,29.80
2019-01-20T14:27:52.487Z,29.80
2019-01-20T14:30:20.367Z,29.60
2019-01-20T14:32:47.496Z,29.20
2019-01-20T14:35:14.719Z,28.80
2019-01-20T14:37:41.810Z,28.80
2019-01-20T14:40:08.690Z,28.70
2019-01-20T14:42:35.374Z,29.00
2019-01-20T14:45:02.429Z,29.30
2019-01-20T14:47:29.579Z,29.70
2019-01-20T14:49:56.633Z,30.10
2019-01-20T14:52:23.685Z,30.20
2019-01-20T14:54:50.981Z,30.50
2019-01-20T14:57:18.083Z,30.80
2019-01-20T14:59:45.106Z,31.00
2019-01-20T15:02:12.259Z,31.00
2019-01-20T15:04:39.343Z,31.10
2019-01-20T15:07:06.064Z,31.50
2019-01-20T15:09:33.278Z,31.60
2019-01-20T15:12:00.032Z,31.60
2019-01-20T15:14:27.103Z,31.50
2019-01-20T15:16:55.385Z,32.30
2019-01-20T15:19:22.523Z,31.60
2019-01-20T15:21:49.677Z,31.40
2019-01-20T15:24:16.728Z,31.30
2019-01-20T15:26:43.899Z,31.30
2019-01-20T15:29:12.281Z,31.30
2019-01-20T15:31:39.082Z,31.30
2019-01-20T15:34:05.715Z,31.20
2019-01-20T15:36:32.461Z,31.20
2019-01-20T15:38:59.141Z,31.20
2019-01-20T15:41:26.152Z,31.30
2019-01-20T15:43:53.339Z,31.20
2019-01-20T15:46:20.454Z,31.00
2019-01-20T15:48:47.498Z,31.00
2019-01-20T15:51:14.571Z,30.90
2019-01-20T15:53:41.277Z,31.00
2019-01-20T15:56:08.351Z,31.10
2019-01-20T15:58:35.484Z,31.20
2019-01-20T16:01:02.252Z,31.30
2019-01-20T16:03:29.203Z,31.40
2019-01-20T16:05:56.234Z,31.40
2019-01-20T16:08:23.014Z,31.40
2019-01-20T16:10:50.141Z,31.60
2019-01-20T16:13:17.945Z,31.50
2019-01-20T16:15:45.149Z,31.80
2019-01-20T16:18:14.435Z,31.80
2019-01-20T16:20:41.088Z,31.80
2019-01-20T16:23:08.235Z,31.80
2019-01-20T16:25:36.050Z,32.00
2019-01-20T16:28:02.779Z,32.10
2019-01-20T16:30:29.894Z,32.10
2019-01-20T16:32:56.619Z,32.10
2019-01-20T16:35:24.438Z,32.20
2019-01-20T16:37:51.580Z,32.40
2019-01-20T16:40:18.572Z,32.40
2019-01-20T16:42:45.825Z,32.60
2019-01-20T16:45:13.083Z,32.10
2019-01-20T16:47:41.166Z,32.70
2019-01-20T16:50:08.242Z,32.80
2019-01-20T16:52:36.449Z,33.00
2019-01-20T16:55:03.665Z,33.10
2019-01-20T16:57:42.882Z,33.20
2019-01-20T17:02:38.084Z,33.10
2019-01-20T17:05:05.155Z,33.20
2019-01-20T17:07:31.871Z,33.30
2019-01-20T17:09:58.965Z,33.50
2019-01-20T17:12:25.672Z,33.60
2019-01-20T17:14:52.581Z,33.50
2019-01-20T17:17:19.653Z,33.50
2019-01-20T17:19:46.353Z,33.90
2019-01-20T17:22:13.226Z,33.90
2019-01-20T17:24:40.448Z,34.10
2019-01-20T17:27:07.096Z,34.40
2019-01-20T17:29:34.294Z,34.70
2019-01-20T17:32:01.056Z,34.70
2019-01-20T17:34:27.782Z,34.70
2019-01-20T17:36:54.962Z,34.80
2019-01-20T17:39:22.083Z,34.90
2019-01-20T17:41:49.141Z,34.80
2019-01-20T17:44:16.252Z,35.10
2019-01-20T17:46:42.950Z,35.40
2019-01-20T17:49:09.690Z,35.60
2019-01-20T17:51:36.812Z,35.70
2019-01-20T17:54:03.973Z,35.70
2019-01-20T17:56:30.634Z,35.80
2019-01-20T17:58:58.469Z,36.20
2019-01-20T18:01:25.592Z,36.50
2019-01-20T18:03:53.307Z,36.50
2019-01-20T18:06:20.366Z,36.30
2019-01-20T18:08:47.018Z,36.00
2019-01-20T18:11:13.744Z,36.30
2019-01-20T18:13:40.475Z,36.30
2019-01-20T18:16:07.615Z,36.30
2019-01-20T18:18:34.750Z,36.50
2019-01-20T18:21:01.894Z,36.50
2019-01-20T18:23:28.945Z,36.30
2019-01-20T18:25:56.087Z,36.30
2019-01-20T18:28:22.843Z,36.30
2019-01-20T18:30:49.517Z,36.40
2019-01-20T18:33:16.636Z,36.20
2019-01-20T18:35:43.788Z,36.30
2019-01-20T18:38:10.796Z,36.20
2019-01-20T18:40:38.896Z,36.00
2019-01-20T18:43:05.648Z,35.90
2019-01-20T18:45:32.791Z,35.90
2019-01-20T18:47:59.912Z,35.80
2019-01-20T18:50:26.574Z,35.90
2019-01-20T18:52:53.269Z,36.10
2019-01-20T18:55:20.037Z,36.40
2019-01-20T18:57:47.308Z,36.20
2019-01-20T19:00:14.083Z,36.30
2019-01-20T19:02:40.720Z,36.50
2019-01-20T19:05:07.485Z,36.50
2019-01-20T19:07:40.650Z,36.70
2019-01-20T19:10:03.765Z,36.60
2019-01-20T19:12:30.579Z,36.60
2019-01-20T19:14:57.203Z,36.80
2019-01-20T19:17:24.320Z,36.60
2019-01-20T19:19:51.071Z,36.60
2019-01-20T19:22:18.105Z,36.90
2019-01-20T19:24:45.247Z,36.70
2019-01-20T19:27:12.417Z,36.60
2019-01-20T19:29:39.104Z,36.20
2019-01-20T19:32:06.190Z,36.20
2019-01-20T19:34:32.992Z,36.10
2019-01-20T19:36:59.668Z,36.00
2019-01-20T19:39:26.812Z,36.30
2019-01-20T19:41:53.961Z,36.30
2019-01-20T19:44:20.656Z,36.30
2019-01-20T19:46:47.354Z,36.40
2019-01-20T19:49:14.159Z,36.30
2019-01-20T19:51:40.859Z,36.30
2019-01-20T19:54:07.976Z,36.30
2019-01-20T19:56:35.727Z,36.60
2019-01-20T19:59:02.843Z,36.50
2019-01-20T20:01:30.976Z,36.50
2019-01-20T20:03:58.521Z,36.50
2019-01-20T20:06:25.580Z,36.40
2019-01-20T20:08:52.244Z,36.40
2019-01-20T20:11:19.853Z,36.40
2019-01-20T20:13:47.178Z,36.50
2019-01-20T20:16:14.165Z,36.00
2019-01-20T20:18:41.391Z,36.30
2019-01-20T20:21:08.501Z,37.10
2019-01-20T20:23:35.215Z,36.30
2019-01-20T20:26:01.937Z,36.20
2019-01-20T20:28:28.638Z,36.20
2019-01-20T20:30:55.771Z,36.20
2019-01-20T20:33:22.444Z,36.20
2019-01-20T20:35:49.560Z,36.30
2019-01-20T20:38:16.713Z,36.60
2019-01-20T20:40:43.868Z,36.30
2019-01-20T20:43:11.423Z,36.00
2019-01-20T20:45:38.227Z,36.10
2019-01-20T20:48:05.278Z,36.10
2019-01-20T20:50:32.557Z,36.10
2019-01-20T20:53:00.330Z,36.10
2019-01-20T20:55:27.119Z,36.00
2019-01-20T20:57:54.192Z,36.10
2019-01-20T21:00:21.226Z,36.20
2019-01-20T21:02:48.054Z,36.20
2019-01-20T21:05:24.243Z,36.10
2019-01-20T21:07:51.158Z,36.10
2019-01-20T21:10:18.988Z,36.10
2019-01-20T21:12:45.769Z,36.10
2019-01-20T21:15:13.730Z,36.10
2019-01-20T21:17:48.141Z,36.10
2019-01-20T21:20:10.228Z,36.10
2019-01-20T21:22:37.378Z,36.50
2019-01-20T21:25:06.033Z,36.30
2019-01-20T21:27:34.179Z,36.20
2019-01-20T21:30:00.905Z,36.20
2019-01-20T21:32:27.658Z,36.20
2019-01-20T21:34:55.109Z,36.10
2019-01-20T21:37:21.793Z,36.00
2019-01-20T21:39:48.962Z,35.80
2019-01-20T21:42:16.114Z,35.90
2019-01-20T21:44:43.923Z,35.60
2019-01-20T21:47:11.260Z,35.50
2019-01-20T21:49:38.563Z,35.60
2019-01-20T21:52:05.634Z,35.80
2019-01-20T21:54:33.619Z,36.10
2019-01-20T21:57:00.696Z,35.90
2019-01-20T21:59:27.810Z,35.80
2019-01-20T22:01:54.544Z,35.50
2019-01-20T22:04:21.717Z,35.50
2019-01-20T22:06:48.404Z,35.50
2019-01-20T22:09:15.060Z,35.50
2019-01-20T22:11:41.834Z,35.40
2019-01-20T22:14:08.952Z,35.50
2019-01-20T22:16:39.043Z,35.70
2019-01-20T22:19:05.732Z,35.50
2019-01-20T22:21:32.826Z,35.70
2019-01-20T22:23:59.619Z,35.60
2019-01-20T22:26:26.640Z,35.90
2019-01-20T22:28:53.372Z,35.70
2019-01-20T22:31:20.376Z,35.70
2019-01-20T22:33:48.313Z,35.50
2019-01-20T22:36:15.916Z,35.50
2019-01-20T22:38:43.065Z,35.40
2019-01-20T22:41:10.241Z,35.60
2019-01-20T22:43:37.489Z,35.70
2019-01-20T22:46:04.149Z,35.70
2019-01-20T22:48:31.078Z,35.90
2019-01-20T22:50:57.772Z,35.90
2019-01-20T22:53:25.248Z,35.80
2019-01-20T22:55:52.077Z,36.10
2019-01-20T22:58:19.256Z,36.20
2019-01-20T23:00:46.391Z,36.10
2019-01-20T23:03:13.609Z,36.10
2019-01-20T23:05:41.126Z,36.40
2019-01-20T23:08:08.011Z,36.40
2019-01-20T23:10:35.264Z,36.40
2019-01-20T23:13:02.323Z,36.60
2019-01-20T23:15:29.460Z,36.40
2019-01-20T23:17:56.706Z,36.40
2019-01-20T23:20:23.506Z,36.20
2019-01-20T23:22:50.292Z,36.10
2019-01-20T23:25:17.550Z,36.10
2019-01-20T23:27:45.257Z,36.20
2019-01-20T23:30:12.110Z,36.40
2019-01-20T23:32:39.243Z,36.70
2019-01-20T23:35:06.351Z,36.70
2019-01-20T23:37:33.433Z,36.60
2019-01-20T23:40:00.561Z,37.00
2019-01-20T23:42:27.814Z,37.10
2019-01-20T23:44:54.935Z,37.10
2019-01-20T23:47:22.752Z,37.00
2019-01-20T23:49:49.490Z,36.40
2019-01-20T23:52:16.636Z,37.80
2019-01-20T23:54:43.917Z,37.20
2019-01-20T23:57:10.586Z,37.20
2019-01-20T23:59:37.761Z,37.30
